<?xml version="1.0" encoding="UTF-8" standalone="no" ?><gpx xmlns="http://www.topografix.com/GPX/1/1" xmlns:gpxx="http://www.garmin.com/xmlschemas/GpxExtensions/v3" xmlns:wptx1="http://www.garmin.com/xmlschemas/WaypointExtension/v1" xmlns:gpxtpx="http://www.garmin.com/xmlschemas/TrackPointExtension/v1" creator="GuideVTT.com" version="1.1" xmlns:xsi="http://www.w3.org/2001/XMLSchema-instance" xsi:schemaLocation="http://www.topografix.com/GPX/1/1 http://www.topografix.com/GPX/1/1/gpx.xsd http://www.garmin.com/xmlschemas/GpxExtensions/v3 http://www8.garmin.com/xmlschemas/GpxExtensionsv3.xsd http://www.garmin.com/xmlschemas/WaypointExtension/v1 http://www8.garmin.com/xmlschemas/WaypointExtensionv1.xsd http://www.garmin.com/xmlschemas/TrackPointExtension/v1 http://www.garmin.com/xmlschemas/TrackPointExtensionv1.xsd">
<metadata><link href="http://www.garmin.com"><text>Garmin International</text></link><time>2013-06-22T15:13:50Z</time></metadata>
<trk><name>la_thielle_bike.gpx</name><extensions><gpxx:TrackExtension><gpxx:DisplayColor>Cyan</gpxx:DisplayColor></gpxx:TrackExtension></extensions><trkseg>
<trkpt lat="47.0090981999643" lon="7.01003339997633"><ele></ele><time>2013-8-3T16:31:25Z</time></trkpt>
<trkpt lat="47.0090080999643" lon="7.01000119997636"><ele></ele><time>2013-8-3T16:31:28Z</time></trkpt>
<trkpt lat="47.0088339999641" lon="7.01154779997625"><ele></ele><time>2013-8-3T16:31:31Z</time></trkpt>
<trkpt lat="47.0087670999642" lon="7.01171269997626"><ele></ele><time>2013-8-3T16:31:34Z</time></trkpt>
<trkpt lat="47.0080275999644" lon="7.01240899997644"><ele></ele><time>2013-8-3T16:31:37Z</time></trkpt>
<trkpt lat="47.0076685999646" lon="7.01260909997654"><ele></ele><time>2013-8-3T16:31:40Z</time></trkpt>
<trkpt lat="47.0074442999647" lon="7.01277529997661"><ele></ele><time>2013-8-3T16:31:43Z</time></trkpt>
<trkpt lat="47.0070857999648" lon="7.01313979997669"><ele></ele><time>2013-8-3T16:31:46Z</time></trkpt>
<trkpt lat="47.0061676999652" lon="7.01419899997691"><ele></ele><time>2013-8-3T16:31:49Z</time></trkpt>
<trkpt lat="47.0061234999652" lon="7.0143965999769"><ele></ele><time>2013-8-3T16:31:52Z</time></trkpt>
<trkpt lat="47.0061240999651" lon="7.01456099997687"><ele></ele><time>2013-8-3T16:31:55Z</time></trkpt>
<trkpt lat="47.0063511999649" lon="7.01515099997673"><ele></ele><time>2013-8-3T16:31:58Z</time></trkpt>
<trkpt lat="47.0063744999649" lon="7.0153808999767"><ele></ele><time>2013-8-3T16:32:1Z</time></trkpt>
<trkpt lat="47.0063087999647" lon="7.01584169997666"><ele></ele><time>2013-8-3T16:32:4Z</time></trkpt>
<trkpt lat="47.0062213999647" lon="7.01653269997661"><ele></ele><time>2013-8-3T16:32:7Z</time></trkpt>
<trkpt lat="47.0062003999647" lon="7.01696029997657"><ele></ele><time>2013-8-3T16:32:10Z</time></trkpt>
<trkpt lat="47.0062016999646" lon="7.01728899997653"><ele></ele><time>2013-8-3T16:32:13Z</time></trkpt>
<trkpt lat="47.0055532999648" lon="7.01831319997665"><ele></ele><time>2013-8-3T16:32:16Z</time></trkpt>
<trkpt lat="47.0054414999649" lon="7.01851129997668"><ele></ele><time>2013-8-3T16:32:19Z</time></trkpt>
<trkpt lat="47.0054196999648" lon="7.01867589997666"><ele></ele><time>2013-8-3T16:32:22Z</time></trkpt>
<trkpt lat="47.0055118999647" lon="7.01929979997655"><ele></ele><time>2013-8-3T16:32:25Z</time></trkpt>
<trkpt lat="47.0055353999646" lon="7.01956259997652"><ele></ele><time>2013-8-3T16:32:28Z</time></trkpt>
<trkpt lat="47.0054921999645" lon="7.02005599997647"><ele></ele><time>2013-8-3T16:32:31Z</time></trkpt>
<trkpt lat="47.0054928999647" lon="7.02025329997644"><ele></ele><time>2013-8-3T16:32:34Z</time></trkpt>
<trkpt lat="47.0055837999644" lon="7.02051549997639"><ele></ele><time>2013-8-3T16:32:37Z</time></trkpt>
<trkpt lat="47.0061952999639" lon="7.02169429997602"><ele></ele><time>2013-8-3T16:32:40Z</time></trkpt>
<trkpt lat="47.0069202999632" lon="7.0231679999756"><ele></ele><time>2013-8-3T16:32:43Z</time></trkpt>
<trkpt lat="47.0070781999631" lon="7.02329829997552"><ele></ele><time>2013-8-3T16:32:46Z</time></trkpt>
<trkpt lat="47.007235999963" lon="7.02342859997546"><ele></ele><time>2013-8-3T16:32:49Z</time></trkpt>
<trkpt lat="47.007349099963" lon="7.02359209997539"><ele></ele><time>2013-8-3T16:32:52Z</time></trkpt>
<trkpt lat="47.0074620999628" lon="7.02375559997534"><ele></ele><time>2013-8-3T16:32:55Z</time></trkpt>
<trkpt lat="47.0075748999628" lon="7.02385329997528"><ele></ele><time>2013-8-3T16:32:58Z</time></trkpt>
<trkpt lat="47.0077099999627" lon="7.02388509997523"><ele></ele><time>2013-8-3T16:33:1Z</time></trkpt>
<trkpt lat="47.0078673999626" lon="7.02388389997517"><ele></ele><time>2013-8-3T16:33:4Z</time></trkpt>
<trkpt lat="47.0087196999622" lon="7.02328559997494"><ele></ele><time>2013-8-3T16:33:7Z</time></trkpt>
<trkpt lat="47.0089214999622" lon="7.02311959997489"><ele></ele><time>2013-8-3T16:33:10Z</time></trkpt>
<trkpt lat="47.0090333999621" lon="7.02295439997486"><ele></ele><time>2013-8-3T16:33:13Z</time></trkpt>
<trkpt lat="47.0091455999621" lon="7.02288769997483"><ele></ele><time>2013-8-3T16:33:16Z</time></trkpt>
<trkpt lat="47.0095052999619" lon="7.02285209997471"><ele></ele><time>2013-8-3T16:33:19Z</time></trkpt>
<trkpt lat="47.0096403999619" lon="7.02291679997465"><ele></ele><time>2013-8-3T16:33:22Z</time></trkpt>
<trkpt lat="47.0097535999617" lon="7.02311319997459"><ele></ele><time>2013-8-3T16:33:25Z</time></trkpt>
<trkpt lat="47.0103424999612" lon="7.02429219997424"><ele></ele><time>2013-8-3T16:33:28Z</time></trkpt>
<trkpt lat="47.0105458999611" lon="7.02455359997413"><ele></ele><time>2013-8-3T16:33:31Z</time></trkpt>
<trkpt lat="47.0106811999609" lon="7.02465119997407"><ele></ele><time>2013-8-3T16:33:34Z</time></trkpt>
<trkpt lat="47.010569199961" lon="7.0247835999741"><ele></ele><time>2013-8-3T16:33:37Z</time></trkpt>
<trkpt lat="47.0114517999602" lon="7.02632199997361"><ele></ele><time>2013-8-3T16:33:40Z</time></trkpt>
<trkpt lat="47.0118143999599" lon="7.02710829997338"><ele></ele><time>2013-8-3T16:33:43Z</time></trkpt>
<trkpt lat="47.0123580999594" lon="7.02822199997305"><ele></ele><time>2013-8-3T16:33:46Z</time></trkpt>
<trkpt lat="47.0136267999582" lon="7.03084259997229"><ele></ele><time>2013-8-3T16:33:49Z</time></trkpt>
<trkpt lat="47.0136046999583" lon="7.03094139997228"><ele></ele><time>2013-8-3T16:33:52Z</time></trkpt>
<trkpt lat="47.0134480999584" lon="7.03117279997231"><ele></ele><time>2013-8-3T16:33:55Z</time></trkpt>
<trkpt lat="47.0132692999584" lon="7.03146999997235"><ele></ele><time>2013-8-3T16:33:58Z</time></trkpt>
<trkpt lat="47.0132470999584" lon="7.03156879997234"><ele></ele><time>2013-8-3T16:34:1Z</time></trkpt>
<trkpt lat="47.0137651999581" lon="7.03179499997213"><ele></ele><time>2013-8-3T16:34:4Z</time></trkpt>
<trkpt lat="47.0147110999575" lon="7.03221529997174"><ele></ele><time>2013-8-3T16:34:7Z</time></trkpt>
<trkpt lat="47.0156343999569" lon="7.03256999997136"><ele></ele><time>2013-8-3T16:34:10Z</time></trkpt>
<trkpt lat="47.0162649999566" lon="7.03282819997111"><ele></ele><time>2013-8-3T16:34:13Z</time></trkpt>
<trkpt lat="47.0170074999561" lon="7.03295409997082"><ele></ele><time>2013-8-3T16:34:16Z</time></trkpt>
<trkpt lat="47.0177949999557" lon="7.03304679997053"><ele></ele><time>2013-8-3T16:34:19Z</time></trkpt>
<trkpt lat="47.0183796999553" lon="7.03307529997031"><ele></ele><time>2013-8-3T16:34:22Z</time></trkpt>
<trkpt lat="47.019121699955" lon="7.03303679997005"><ele></ele><time>2013-8-3T16:34:25Z</time></trkpt>
<trkpt lat="47.0199533999545" lon="7.03293179996976"><ele></ele><time>2013-8-3T16:34:28Z</time></trkpt>
<trkpt lat="47.020852799954" lon="7.03289209996945"><ele></ele><time>2013-8-3T16:34:31Z</time></trkpt>
<trkpt lat="47.0215722999536" lon="7.03285379996919"><ele></ele><time>2013-8-3T16:34:34Z</time></trkpt>
<trkpt lat="47.0236407999525" lon="7.03273949996845"><ele></ele><time>2013-8-3T16:34:37Z</time></trkpt>
<trkpt lat="47.0248772999519" lon="7.03266429996801"><ele></ele><time>2013-8-3T16:34:40Z</time></trkpt>
<trkpt lat="47.0253269999517" lon="7.03262799996785"><ele></ele><time>2013-8-3T16:34:43Z</time></trkpt>
<trkpt lat="47.0256642999515" lon="7.03262549996774"><ele></ele><time>2013-8-3T16:34:46Z</time></trkpt>
<trkpt lat="47.0265636999509" lon="7.03258579996742"><ele></ele><time>2013-8-3T16:34:49Z</time></trkpt>
<trkpt lat="47.0275080999504" lon="7.03257859996708"><ele></ele><time>2013-8-3T16:34:52Z</time></trkpt>
<trkpt lat="47.0288348999497" lon="7.03256849996659"><ele></ele><time>2013-8-3T16:34:55Z</time></trkpt>
<trkpt lat="47.0294647999494" lon="7.03262949996637"><ele></ele><time>2013-8-3T16:34:58Z</time></trkpt>
<trkpt lat="47.030049899949" lon="7.03275669996614"><ele></ele><time>2013-8-3T16:35:1Z</time></trkpt>
<trkpt lat="47.0303876999488" lon="7.032885699966"><ele></ele><time>2013-8-3T16:35:4Z</time></trkpt>
<trkpt lat="47.0308605999485" lon="7.0330793999658"><ele></ele><time>2013-8-3T16:35:7Z</time></trkpt>
<trkpt lat="47.0311985999482" lon="7.03327419996566"><ele></ele><time>2013-8-3T16:35:10Z</time></trkpt>
<trkpt lat="47.0316945999479" lon="7.03363219996544"><ele></ele><time>2013-8-3T16:35:13Z</time></trkpt>
<trkpt lat="47.0321907999477" lon="7.03402319996522"><ele></ele><time>2013-8-3T16:35:16Z</time></trkpt>
<trkpt lat="47.0325968999473" lon="7.03441479996502"><ele></ele><time>2013-8-3T16:35:19Z</time></trkpt>
<trkpt lat="47.0332740999469" lon="7.03513329996469"><ele></ele><time>2013-8-3T16:35:22Z</time></trkpt>
<trkpt lat="47.0341767999462" lon="7.03604749996426"><ele></ele><time>2013-8-3T16:35:25Z</time></trkpt>
<trkpt lat="47.0351247999455" lon="7.0370270999638"><ele></ele><time>2013-8-3T16:35:28Z</time></trkpt>
<trkpt lat="47.0354405999453" lon="7.03732079996365"><ele></ele><time>2013-8-3T16:35:31Z</time></trkpt>
<trkpt lat="47.0355532999452" lon="7.0373856999636"><ele></ele><time>2013-8-3T16:35:34Z</time></trkpt>
<trkpt lat="47.0356882999451" lon="7.03741759996354"><ele></ele><time>2013-8-3T16:35:37Z</time></trkpt>
<trkpt lat="47.035801099945" lon="7.03751539996349"><ele></ele><time>2013-8-3T16:35:40Z</time></trkpt>
<trkpt lat="47.0362074999447" lon="7.03797289996329"><ele></ele><time>2013-8-3T16:35:43Z</time></trkpt>
<trkpt lat="47.0364785999446" lon="7.03833269996315"><ele></ele><time>2013-8-3T16:35:46Z</time></trkpt>
<trkpt lat="47.0368628999442" lon="7.03888899996294"><ele></ele><time>2013-8-3T16:35:49Z</time></trkpt>
<trkpt lat="47.037202099944" lon="7.03944559996275"><ele></ele><time>2013-8-3T16:35:52Z</time></trkpt>
<trkpt lat="47.0374058999438" lon="7.03983889996264"><ele></ele><time>2013-8-3T16:35:55Z</time></trkpt>
<trkpt lat="47.0381530999432" lon="7.04131349996219"><ele></ele><time>2013-8-3T16:35:58Z</time></trkpt>
<trkpt lat="47.0388774999425" lon="7.04268969996177"><ele></ele><time>2013-8-3T16:36:1Z</time></trkpt>
<trkpt lat="47.0396472999418" lon="7.0441971999613"><ele></ele><time>2013-8-3T16:36:4Z</time></trkpt>
<trkpt lat="47.040620799941" lon="7.04609799996072"><ele></ele><time>2013-8-3T16:36:7Z</time></trkpt>
<trkpt lat="47.0416168999401" lon="7.04803159996013"><ele></ele><time>2013-8-3T16:36:10Z</time></trkpt>
<trkpt lat="47.0425676999393" lon="7.04989979995957"><ele></ele><time>2013-8-3T16:36:13Z</time></trkpt>
<trkpt lat="47.0427262999391" lon="7.05022759995947"><ele></ele><time>2013-8-3T16:36:16Z</time></trkpt>
<trkpt lat="47.0429526999389" lon="7.05068649995933"><ele></ele><time>2013-8-3T16:36:19Z</time></trkpt>
<trkpt lat="47.0431116999388" lon="7.05114589995922"><ele></ele><time>2013-8-3T16:36:22Z</time></trkpt>
<trkpt lat="47.0433387999385" lon="7.05180219995906"><ele></ele><time>2013-8-3T16:36:25Z</time></trkpt>
<trkpt lat="47.0435206999383" lon="7.05239309995892"><ele></ele><time>2013-8-3T16:36:28Z</time></trkpt>
<trkpt lat="47.0436116999382" lon="7.05272139995885"><ele></ele><time>2013-8-3T16:36:31Z</time></trkpt>
<trkpt lat="47.0436342999382" lon="7.05275409995883"><ele></ele><time>2013-8-3T16:36:34Z</time></trkpt>
<trkpt lat="47.0437016999382" lon="7.05272069995881"><ele></ele><time>2013-8-3T16:36:37Z</time></trkpt>
<trkpt lat="47.044038299938" lon="7.05252089995871"><ele></ele><time>2013-8-3T16:36:40Z</time></trkpt>
<trkpt lat="47.044217499938" lon="7.05232219995868"><ele></ele><time>2013-8-3T16:36:43Z</time></trkpt>
<trkpt lat="47.0444193999379" lon="7.05215629995862"><ele></ele><time>2013-8-3T16:36:46Z</time></trkpt>
<trkpt lat="47.0446661999377" lon="7.05198999995856"><ele></ele><time>2013-8-3T16:36:49Z</time></trkpt>
<trkpt lat="47.0448710999375" lon="7.05274519995839"><ele></ele><time>2013-8-3T16:36:52Z</time></trkpt>
<trkpt lat="47.0444669999377" lon="7.05294549995851"><ele></ele><time>2013-8-3T16:36:55Z</time></trkpt>
<trkpt lat="47.0439510999379" lon="7.05334399995865"><ele></ele><time>2013-8-3T16:36:58Z</time></trkpt>
<trkpt lat="47.0439064999379" lon="7.05344299995865"><ele></ele><time>2013-8-3T16:37:1Z</time></trkpt>
<trkpt lat="47.0438842999379" lon="7.05354189995865"><ele></ele><time>2013-8-3T16:37:4Z</time></trkpt>
<trkpt lat="47.0440684999376" lon="7.05482349995843"><ele></ele><time>2013-8-3T16:37:7Z</time></trkpt>
<trkpt lat="47.0443455999371" lon="7.05699279995807"><ele></ele><time>2013-8-3T16:37:10Z</time></trkpt>
<trkpt lat="47.0446213999367" lon="7.05876739995775"><ele></ele><time>2013-8-3T16:37:13Z</time></trkpt>
<trkpt lat="47.0448045999364" lon="7.05975299995757"><ele></ele><time>2013-8-3T16:37:16Z</time></trkpt>
<trkpt lat="47.0448279999363" lon="7.06004889995752"><ele></ele><time>2013-8-3T16:37:19Z</time></trkpt>
<trkpt lat="47.044832799936" lon="7.06149639995736"><ele></ele><time>2013-8-3T16:37:22Z</time></trkpt>
<trkpt lat="47.0448794999359" lon="7.06202249995726"><ele></ele><time>2013-8-3T16:37:25Z</time></trkpt>
<trkpt lat="47.0449945999357" lon="7.06284409995713"><ele></ele><time>2013-8-3T16:37:28Z</time></trkpt>
<trkpt lat="47.0453155999353" lon="7.06471709995678"><ele></ele><time>2013-8-3T16:37:31Z</time></trkpt>
<trkpt lat="47.0454065999351" lon="7.0650453999567"><ele></ele><time>2013-8-3T16:37:34Z</time></trkpt>
<trkpt lat="47.045542799935" lon="7.06543929995661"><ele></ele><time>2013-8-3T16:37:37Z</time></trkpt>
<trkpt lat="47.0460176999346" lon="7.06625839995635"><ele></ele><time>2013-8-3T16:37:40Z</time></trkpt>
<trkpt lat="47.0461757999344" lon="7.06645469995627"><ele></ele><time>2013-8-3T16:37:43Z</time></trkpt>
<trkpt lat="47.0473842999341" lon="7.06466969995604"><ele></ele><time>2013-8-3T16:37:46Z</time></trkpt>
<trkpt lat="47.047541199934" lon="7.06450409995601"><ele></ele><time>2013-8-3T16:37:49Z</time></trkpt>
<trkpt lat="47.047653499934" lon="7.06447039995597"><ele></ele><time>2013-8-3T16:37:52Z</time></trkpt>
<trkpt lat="47.0477435999339" lon="7.06450269995593"><ele></ele><time>2013-8-3T16:37:55Z</time></trkpt>
<trkpt lat="47.0478337999339" lon="7.06456789995589"><ele></ele><time>2013-8-3T16:37:58Z</time></trkpt>
<trkpt lat="47.0478786999339" lon="7.06456759995587"><ele></ele><time>2013-8-3T16:38:1Z</time></trkpt>
<trkpt lat="47.0479458999338" lon="7.06446839995585"><ele></ele><time>2013-8-3T16:38:4Z</time></trkpt>
<trkpt lat="47.0483741999336" lon="7.06479439995566"><ele></ele><time>2013-8-3T16:38:7Z</time></trkpt>
<trkpt lat="47.0487121999333" lon="7.06498949995551"><ele></ele><time>2013-8-3T16:38:10Z</time></trkpt>
<trkpt lat="47.0490273999331" lon="7.06511889995539"><ele></ele><time>2013-8-3T16:38:13Z</time></trkpt>
<trkpt lat="47.049252399933" lon="7.06515019995529"><ele></ele><time>2013-8-3T16:38:16Z</time></trkpt>
<trkpt lat="47.0495220999329" lon="7.06511539995521"><ele></ele><time>2013-8-3T16:38:19Z</time></trkpt>
<trkpt lat="47.0498360999327" lon="7.06484999995512"><ele></ele><time>2013-8-3T16:38:22Z</time></trkpt>
<trkpt lat="47.0500381999326" lon="7.06474989995506"><ele></ele><time>2013-8-3T16:38:25Z</time></trkpt>
<trkpt lat="47.0502178999325" lon="7.064682799955"><ele></ele><time>2013-8-3T16:38:28Z</time></trkpt>
<trkpt lat="47.0511164999321" lon="7.0644132999547"><ele></ele><time>2013-8-3T16:38:31Z</time></trkpt>
<trkpt lat="47.051408499932" lon="7.06431259995461"><ele></ele><time>2013-8-3T16:38:34Z</time></trkpt>
<trkpt lat="47.0516105999319" lon="7.06421249995455"><ele></ele><time>2013-8-3T16:38:37Z</time></trkpt>
<trkpt lat="47.0519473999317" lon="7.06407849995444"><ele></ele><time>2013-8-3T16:38:40Z</time></trkpt>
<trkpt lat="47.0523744999315" lon="7.0640096999543"><ele></ele><time>2013-8-3T16:38:43Z</time></trkpt>
<trkpt lat="47.0524869999314" lon="7.06404179995425"><ele></ele><time>2013-8-3T16:38:46Z</time></trkpt>
<trkpt lat="47.0525547999314" lon="7.06414009995422"><ele></ele><time>2013-8-3T16:38:49Z</time></trkpt>
<trkpt lat="47.0527134999312" lon="7.06453379995411"><ele></ele><time>2013-8-3T16:38:52Z</time></trkpt>
<trkpt lat="47.0528263999311" lon="7.06466459995406"><ele></ele><time>2013-8-3T16:38:55Z</time></trkpt>
<trkpt lat="47.0529388999311" lon="7.06469669995401"><ele></ele><time>2013-8-3T16:38:58Z</time></trkpt>
<trkpt lat="47.0534332999308" lon="7.06459459995384"><ele></ele><time>2013-8-3T16:39:1Z</time></trkpt>
<trkpt lat="47.0538378999306" lon="7.06452589995371"><ele></ele><time>2013-8-3T16:39:4Z</time></trkpt>
<trkpt lat="47.0545801999302" lon="7.06458649995343"><ele></ele><time>2013-8-3T16:39:7Z</time></trkpt>
<trkpt lat="47.0561095999293" lon="7.06467459995286"><ele></ele><time>2013-8-3T16:39:10Z</time></trkpt>
<trkpt lat="47.0562666999293" lon="7.06457479995282"><ele></ele><time>2013-8-3T16:39:13Z</time></trkpt>
<trkpt lat="47.0564459999292" lon="7.06437609995276"><ele></ele><time>2013-8-3T16:39:16Z</time></trkpt>
<trkpt lat="47.0566256999291" lon="7.06430899995271"><ele></ele><time>2013-8-3T16:39:19Z</time></trkpt>
<trkpt lat="47.0568951999289" lon="7.06420839995263"><ele></ele><time>2013-8-3T16:39:22Z</time></trkpt>
<trkpt lat="47.0572997999287" lon="7.06413979995249"><ele></ele><time>2013-8-3T16:39:25Z</time></trkpt>
<trkpt lat="47.0574119999286" lon="7.06407319995245"><ele></ele><time>2013-8-3T16:39:28Z</time></trkpt>
<trkpt lat="47.0574341999287" lon="7.06400719995246"><ele></ele><time>2013-8-3T16:39:31Z</time></trkpt>
<trkpt lat="47.0573884999287" lon="7.0637771999525"><ele></ele><time>2013-8-3T16:39:34Z</time></trkpt>
<trkpt lat="47.0573193999288" lon="7.06328409995258"><ele></ele><time>2013-8-3T16:39:37Z</time></trkpt>
<trkpt lat="47.057227099929" lon="7.06256079995271"><ele></ele><time>2013-8-3T16:39:40Z</time></trkpt>
<trkpt lat="47.0571359999291" lon="7.06219949995278"><ele></ele><time>2013-8-3T16:39:43Z</time></trkpt>
<trkpt lat="47.0570678999293" lon="7.06200249995283"><ele></ele><time>2013-8-3T16:39:46Z</time></trkpt>
<trkpt lat="47.0570673999292" lon="7.06187089995285"><ele></ele><time>2013-8-3T16:39:49Z</time></trkpt>
<trkpt lat="47.0571329999293" lon="7.0612780999529"><ele></ele><time>2013-8-3T16:39:52Z</time></trkpt>
<trkpt lat="47.0571536999294" lon="7.06075149995296"><ele></ele><time>2013-8-3T16:39:55Z</time></trkpt>
<trkpt lat="47.0571294999295" lon="7.06022509995302"><ele></ele><time>2013-8-3T16:39:58Z</time></trkpt>
<trkpt lat="47.0571939999296" lon="7.05933619995311"><ele></ele><time>2013-8-3T16:40:1Z</time></trkpt>
<trkpt lat="47.0572353999298" lon="7.05824999995323"><ele></ele><time>2013-8-3T16:40:4Z</time></trkpt>
<trkpt lat="47.0572330999299" lon="7.05755899995332"><ele></ele><time>2013-8-3T16:40:7Z</time></trkpt>
<trkpt lat="47.05720879993" lon="7.05703269995339"><ele></ele><time>2013-8-3T16:40:10Z</time></trkpt>
<trkpt lat="47.0571851999301" lon="7.05667089995343"><ele></ele><time>2013-8-3T16:40:13Z</time></trkpt>
<trkpt lat="47.0575895999298" lon="7.0565692999533"><ele></ele><time>2013-8-3T16:40:16Z</time></trkpt>
<trkpt lat="47.0575618999301" lon="7.05502289995349"><ele></ele><time>2013-8-3T16:40:19Z</time></trkpt>
<trkpt lat="47.0574918999303" lon="7.05426659995362"><ele></ele><time>2013-8-3T16:40:22Z</time></trkpt>
<trkpt lat="47.0574225999304" lon="7.05370769995371"><ele></ele><time>2013-8-3T16:40:25Z</time></trkpt>
<trkpt lat="47.0572853999306" lon="7.05301759995384"><ele></ele><time>2013-8-3T16:40:28Z</time></trkpt>
<trkpt lat="47.0571487999308" lon="7.05252499995395"><ele></ele><time>2013-8-3T16:40:31Z</time></trkpt>
<trkpt lat="47.0571478999308" lon="7.05226179995398"><ele></ele><time>2013-8-3T16:40:34Z</time></trkpt>
<trkpt lat="47.0571452999309" lon="7.05150499995407"><ele></ele><time>2013-8-3T16:40:37Z</time></trkpt>
<trkpt lat="47.057099599931" lon="7.05127499995412"><ele></ele><time>2013-8-3T16:40:40Z</time></trkpt>
<trkpt lat="47.0568502999312" lon="7.05071739995428"><ele></ele><time>2013-8-3T16:40:43Z</time></trkpt>
<trkpt lat="47.0567825999313" lon="7.0506520999543"><ele></ele><time>2013-8-3T16:40:46Z</time></trkpt>
<trkpt lat="47.0567376999314" lon="7.05065239995432"><ele></ele><time>2013-8-3T16:40:49Z</time></trkpt>
<trkpt lat="47.0566457999315" lon="7.05009369995442"><ele></ele><time>2013-8-3T16:40:52Z</time></trkpt>
<trkpt lat="47.0564396999317" lon="7.04900929995463"><ele></ele><time>2013-8-3T16:40:55Z</time></trkpt>
<trkpt lat="47.0561427999321" lon="7.0476622999549"><ele></ele><time>2013-8-3T16:40:58Z</time></trkpt>
<trkpt lat="47.0560053999323" lon="7.04693939995504"><ele></ele><time>2013-8-3T16:41:1Z</time></trkpt>
<trkpt lat="47.0558692999326" lon="7.04657839995514"><ele></ele><time>2013-8-3T16:41:4Z</time></trkpt>
<trkpt lat="47.0557558999326" lon="7.0463159999552"><ele></ele><time>2013-8-3T16:41:7Z</time></trkpt>
<trkpt lat="47.0557102999326" lon="7.04611889995525"><ele></ele><time>2013-8-3T16:41:10Z</time></trkpt>
<trkpt lat="47.0557308999327" lon="7.0455922999553"><ele></ele><time>2013-8-3T16:41:13Z</time></trkpt>
<trkpt lat="47.0556853999328" lon="7.04542809995534"><ele></ele><time>2013-8-3T16:41:16Z</time></trkpt>
<trkpt lat="47.0552527999333" lon="7.04388479995568"><ele></ele><time>2013-8-3T16:41:19Z</time></trkpt>
<trkpt lat="47.0550024999336" lon="7.04303109995587"><ele></ele><time>2013-8-3T16:41:22Z</time></trkpt>
<trkpt lat="47.0549791999336" lon="7.0428008999559"><ele></ele><time>2013-8-3T16:41:25Z</time></trkpt>
<trkpt lat="47.0549781999337" lon="7.04250479995594"><ele></ele><time>2013-8-3T16:41:28Z</time></trkpt>
<trkpt lat="47.0549549999337" lon="7.04230749995597"><ele></ele><time>2013-8-3T16:41:31Z</time></trkpt>
<trkpt lat="47.0547511999339" lon="7.0418812999561"><ele></ele><time>2013-8-3T16:41:34Z</time></trkpt>
<trkpt lat="47.0543872999343" lon="7.04069939995638"><ele></ele><time>2013-8-3T16:41:37Z</time></trkpt>
<trkpt lat="47.0539555999347" lon="7.03941939995669"><ele></ele><time>2013-8-3T16:41:40Z</time></trkpt>
<trkpt lat="47.0534097999353" lon="7.03767959995709"><ele></ele><time>2013-8-3T16:41:43Z</time></trkpt>
<trkpt lat="47.0532962999355" lon="7.03738429995717"><ele></ele><time>2013-8-3T16:41:46Z</time></trkpt>
<trkpt lat="47.0530471999357" lon="7.03689259995732"><ele></ele><time>2013-8-3T16:41:49Z</time></trkpt>
<trkpt lat="47.052752599936" lon="7.03623679995751"><ele></ele><time>2013-8-3T16:41:52Z</time></trkpt>
<trkpt lat="47.0525259999361" lon="7.03574489995764"><ele></ele><time>2013-8-3T16:41:55Z</time></trkpt>
<trkpt lat="47.0526370999362" lon="7.03538209995764"><ele></ele><time>2013-8-3T16:41:58Z</time></trkpt>
<trkpt lat="47.0529271999361" lon="7.03475479995761"><ele></ele><time>2013-8-3T16:42:1Z</time></trkpt>
<trkpt lat="47.0529268999362" lon="7.03465609995763"><ele></ele><time>2013-8-3T16:42:4Z</time></trkpt>
<trkpt lat="47.0528137999362" lon="7.03445949995769"><ele></ele><time>2013-8-3T16:42:7Z</time></trkpt>
<trkpt lat="47.0525649999365" lon="7.03406659995783"><ele></ele><time>2013-8-3T16:42:10Z</time></trkpt>
<trkpt lat="47.0525643999364" lon="7.03390209995785"><ele></ele><time>2013-8-3T16:42:13Z</time></trkpt>
<trkpt lat="47.0525411999365" lon="7.03370479995788"><ele></ele><time>2013-8-3T16:42:16Z</time></trkpt>
<trkpt lat="47.0524507999366" lon="7.03357389995793"><ele></ele><time>2013-8-3T16:42:19Z</time></trkpt>
<trkpt lat="47.0519990999369" lon="7.03301799995816"><ele></ele><time>2013-8-3T16:42:22Z</time></trkpt>
<trkpt lat="47.0518179999371" lon="7.03269029995827"><ele></ele><time>2013-8-3T16:42:25Z</time></trkpt>
<trkpt lat="47.0516813999372" lon="7.03219779995837"><ele></ele><time>2013-8-3T16:42:28Z</time></trkpt>
<trkpt lat="47.0515213999375" lon="7.03147519995851"><ele></ele><time>2013-8-3T16:42:31Z</time></trkpt>
<trkpt lat="47.0514076999375" lon="7.03111409995861"><ele></ele><time>2013-8-3T16:42:34Z</time></trkpt>
<trkpt lat="47.0512034999377" lon="7.03062209995873"><ele></ele><time>2013-8-3T16:42:37Z</time></trkpt>
<trkpt lat="47.0511350999379" lon="7.03035939995879"><ele></ele><time>2013-8-3T16:42:40Z</time></trkpt>
<trkpt lat="47.0511115999379" lon="7.03006349995883"><ele></ele><time>2013-8-3T16:42:43Z</time></trkpt>
<trkpt lat="47.051086699938" lon="7.02940559995892"><ele></ele><time>2013-8-3T16:42:46Z</time></trkpt>
<trkpt lat="47.0510181999381" lon="7.02910999995898"><ele></ele><time>2013-8-3T16:42:49Z</time></trkpt>
<trkpt lat="47.0507688999383" lon="7.02855259995914"><ele></ele><time>2013-8-3T16:42:52Z</time></trkpt>
<trkpt lat="47.0505652999385" lon="7.02822509995925"><ele></ele><time>2013-8-3T16:42:55Z</time></trkpt>
<trkpt lat="47.0500680999389" lon="7.02753799995952"><ele></ele><time>2013-8-3T16:42:58Z</time></trkpt>
<trkpt lat="47.0497512999392" lon="7.02698109995969"><ele></ele><time>2013-8-3T16:43:1Z</time></trkpt>
<trkpt lat="47.0493887999395" lon="7.02622719995992"><ele></ele><time>2013-8-3T16:43:4Z</time></trkpt>
<trkpt lat="47.0491393999397" lon="7.02566979996007"><ele></ele><time>2013-8-3T16:43:7Z</time></trkpt>
<trkpt lat="47.0490257999399" lon="7.02534169996015"><ele></ele><time>2013-8-3T16:43:10Z</time></trkpt>
<trkpt lat="47.0488428999401" lon="7.02452059996032"><ele></ele><time>2013-8-3T16:43:13Z</time></trkpt>
<trkpt lat="47.0486594999404" lon="7.0235678999605"><ele></ele><time>2013-8-3T16:43:16Z</time></trkpt>
<trkpt lat="47.0485685999404" lon="7.02330539996056"><ele></ele><time>2013-8-3T16:43:19Z</time></trkpt>
<trkpt lat="47.0482962999407" lon="7.02261659996074"><ele></ele><time>2013-8-3T16:43:22Z</time></trkpt>
<trkpt lat="47.048023799941" lon="7.02189489996092"><ele></ele><time>2013-8-3T16:43:25Z</time></trkpt>
<trkpt lat="47.0479097999411" lon="7.02146809996101"><ele></ele><time>2013-8-3T16:43:28Z</time></trkpt>
<trkpt lat="47.0478640999412" lon="7.02127099996105"><ele></ele><time>2013-8-3T16:43:31Z</time></trkpt>
<trkpt lat="47.0478629999412" lon="7.02097489996109"><ele></ele><time>2013-8-3T16:43:34Z</time></trkpt>
<trkpt lat="47.0476613999413" lon="7.02117389996114"><ele></ele><time>2013-8-3T16:43:37Z</time></trkpt>
<trkpt lat="47.0475047999413" lon="7.02140539996117"><ele></ele><time>2013-8-3T16:43:40Z</time></trkpt>
<trkpt lat="47.0473931999414" lon="7.02163659996119"><ele></ele><time>2013-8-3T16:43:43Z</time></trkpt>
<trkpt lat="47.0473273999413" lon="7.02209769996115"><ele></ele><time>2013-8-3T16:43:46Z</time></trkpt>
<trkpt lat="47.0473297999411" lon="7.02275569996107"><ele></ele><time>2013-8-3T16:43:49Z</time></trkpt>
<trkpt lat="47.0474435999411" lon="7.02311669996098"><ele></ele><time>2013-8-3T16:43:52Z</time></trkpt>
<trkpt lat="47.047489199941" lon="7.02331369996095"><ele></ele><time>2013-8-3T16:43:55Z</time></trkpt>
<trkpt lat="47.0474446999411" lon="7.02344569996095"><ele></ele><time>2013-8-3T16:43:58Z</time></trkpt>
<trkpt lat="47.0473773999411" lon="7.02347909996097"><ele></ele><time>2013-8-3T16:44:1Z</time></trkpt>
<trkpt lat="47.0472647999411" lon="7.02344709996101"><ele></ele><time>2013-8-3T16:44:4Z</time></trkpt>
<trkpt lat="47.0471517999412" lon="7.02328339996107"><ele></ele><time>2013-8-3T16:44:7Z</time></trkpt>
<trkpt lat="47.0470609999413" lon="7.02305389996114"><ele></ele><time>2013-8-3T16:44:10Z</time></trkpt>
<trkpt lat="47.0470370999414" lon="7.02265919996119"><ele></ele><time>2013-8-3T16:44:13Z</time></trkpt>
<trkpt lat="47.0469240999415" lon="7.02249559996126"><ele></ele><time>2013-8-3T16:44:16Z</time></trkpt>
<trkpt lat="47.0467206999417" lon="7.02223399996135"><ele></ele><time>2013-8-3T16:44:19Z</time></trkpt>
<trkpt lat="47.0464275999418" lon="7.02200599996149"><ele></ele><time>2013-8-3T16:44:22Z</time></trkpt>
<trkpt lat="47.046202199942" lon="7.02187609996158"><ele></ele><time>2013-8-3T16:44:25Z</time></trkpt>
<trkpt lat="47.0458415999422" lon="7.02164869996175"><ele></ele><time>2013-8-3T16:44:28Z</time></trkpt>
<trkpt lat="47.0455940999424" lon="7.02161769996183"><ele></ele><time>2013-8-3T16:44:31Z</time></trkpt>
<trkpt lat="47.0452341999425" lon="7.02158759996196"><ele></ele><time>2013-8-3T16:44:34Z</time></trkpt>
<trkpt lat="47.0450538999427" lon="7.02149029996204"><ele></ele><time>2013-8-3T16:44:37Z</time></trkpt>
<trkpt lat="47.0443772999432" lon="7.02093629996235"><ele></ele><time>2013-8-3T16:44:40Z</time></trkpt>
<trkpt lat="47.0442195999432" lon="7.02087169996242"><ele></ele><time>2013-8-3T16:44:43Z</time></trkpt>
<trkpt lat="47.0440389999434" lon="7.02067579996251"><ele></ele><time>2013-8-3T16:44:46Z</time></trkpt>
<trkpt lat="47.0437903999435" lon="7.02034869996263"><ele></ele><time>2013-8-3T16:44:49Z</time></trkpt>
<trkpt lat="47.0436092999437" lon="7.02002119996274"><ele></ele><time>2013-8-3T16:44:52Z</time></trkpt>
<trkpt lat="47.0434280999439" lon="7.01966069996284"><ele></ele><time>2013-8-3T16:44:55Z</time></trkpt>
<trkpt lat="47.0433381999439" lon="7.01966139996288"><ele></ele><time>2013-8-3T16:44:58Z</time></trkpt>
<trkpt lat="47.043225199944" lon="7.01953069996294"><ele></ele><time>2013-8-3T16:45:1Z</time></trkpt>
<trkpt lat="47.0427962999443" lon="7.01907349996315"><ele></ele><time>2013-8-3T16:45:4Z</time></trkpt>
<trkpt lat="47.0420963999448" lon="7.01832239996349"><ele></ele><time>2013-8-3T16:45:7Z</time></trkpt>
<trkpt lat="47.0416225999452" lon="7.0178983999637"><ele></ele><time>2013-8-3T16:45:10Z</time></trkpt>
<trkpt lat="47.0412842999454" lon="7.01763789996387"><ele></ele><time>2013-8-3T16:45:13Z</time></trkpt>
<trkpt lat="47.0408333999457" lon="7.01731249996407"><ele></ele><time>2013-8-3T16:45:16Z</time></trkpt>
<trkpt lat="47.0403370999461" lon="7.01688879996429"><ele></ele><time>2013-8-3T16:45:19Z</time></trkpt>
<trkpt lat="47.0401115999462" lon="7.01672609996438"><ele></ele><time>2013-8-3T16:45:22Z</time></trkpt>
<trkpt lat="47.0399538999463" lon="7.01666149996445"><ele></ele><time>2013-8-3T16:45:25Z</time></trkpt>
<trkpt lat="47.0394142999466" lon="7.01666579996465"><ele></ele><time>2013-8-3T16:45:28Z</time></trkpt>
<trkpt lat="47.0392118999467" lon="7.01666739996472"><ele></ele><time>2013-8-3T16:45:31Z</time></trkpt>
<trkpt lat="47.0388985999468" lon="7.01709749996478"><ele></ele><time>2013-8-3T16:45:34Z</time></trkpt>
<trkpt lat="47.0377452999477" lon="7.01536319996541"><ele></ele><time>2013-8-3T16:45:37Z</time></trkpt>
<trkpt lat="47.0371570999482" lon="7.01441389996573"><ele></ele><time>2013-8-3T16:45:40Z</time></trkpt>
<trkpt lat="47.0366143999486" lon="7.01359589996602"><ele></ele><time>2013-8-3T16:45:43Z</time></trkpt>
<trkpt lat="47.0364783999488" lon="7.0133008999661"><ele></ele><time>2013-8-3T16:45:46Z</time></trkpt>
<trkpt lat="47.0363187999489" lon="7.01271009996623"><ele></ele><time>2013-8-3T16:45:49Z</time></trkpt>
<trkpt lat="47.036250699949" lon="7.01254619996627"><ele></ele><time>2013-8-3T16:45:52Z</time></trkpt>
<trkpt lat="47.0359345999492" lon="7.01221979996643"><ele></ele><time>2013-8-3T16:45:55Z</time></trkpt>
<trkpt lat="47.0353701999496" lon="7.01163219996669"><ele></ele><time>2013-8-3T16:45:58Z</time></trkpt>
<trkpt lat="47.03489599995" lon="7.01110969996692"><ele></ele><time>2013-8-3T16:46:1Z</time></trkpt>
<trkpt lat="47.0347379999501" lon="7.01094649996701"><ele></ele><time>2013-8-3T16:46:4Z</time></trkpt>
<trkpt lat="47.0346254999502" lon="7.01091449996705"><ele></ele><time>2013-8-3T16:46:7Z</time></trkpt>
<trkpt lat="47.0343103999503" lon="7.01085119996718"><ele></ele><time>2013-8-3T16:46:10Z</time></trkpt>
<trkpt lat="47.0341525999505" lon="7.01075379996723"><ele></ele><time>2013-8-3T16:46:13Z</time></trkpt>
<trkpt lat="47.0334538999509" lon="7.01033179996754"><ele></ele><time>2013-8-3T16:46:16Z</time></trkpt>
<trkpt lat="47.0329351999513" lon="7.00994129996777"><ele></ele><time>2013-8-3T16:46:19Z</time></trkpt>
<trkpt lat="47.0323264999517" lon="7.00951859996804"><ele></ele><time>2013-8-3T16:46:22Z</time></trkpt>
<trkpt lat="47.0315824999522" lon="7.00903119996836"><ele></ele><time>2013-8-3T16:46:25Z</time></trkpt>
<trkpt lat="47.0310185999525" lon="7.00857519996862"><ele></ele><time>2013-8-3T16:46:28Z</time></trkpt>
<trkpt lat="47.0307253999528" lon="7.00834739996876"><ele></ele><time>2013-8-3T16:46:31Z</time></trkpt>
<trkpt lat="47.030342399953" lon="7.00815309996892"><ele></ele><time>2013-8-3T16:46:34Z</time></trkpt>
<trkpt lat="47.0301845999531" lon="7.00805569996898"><ele></ele><time>2013-8-3T16:46:37Z</time></trkpt>
<trkpt lat="47.0300491999532" lon="7.00792519996904"><ele></ele><time>2013-8-3T16:46:40Z</time></trkpt>
<trkpt lat="47.0298001999534" lon="7.00749969996919"><ele></ele><time>2013-8-3T16:46:43Z</time></trkpt>
<trkpt lat="47.0294834999536" lon="7.00700889996936"><ele></ele><time>2013-8-3T16:46:46Z</time></trkpt>
<trkpt lat="47.0292350999539" lon="7.00671489996948"><ele></ele><time>2013-8-3T16:46:49Z</time></trkpt>
<trkpt lat="47.0289418999541" lon="7.00648699996961"><ele></ele><time>2013-8-3T16:46:52Z</time></trkpt>
<trkpt lat="47.0286038999542" lon="7.00632529996975"><ele></ele><time>2013-8-3T16:46:55Z</time></trkpt>
<trkpt lat="47.0283319999545" lon="7.00576839996991"><ele></ele><time>2013-8-3T16:46:58Z</time></trkpt>
<trkpt lat="47.0280825999546" lon="7.00524419997007"><ele></ele><time>2013-8-3T16:47:1Z</time></trkpt>
<trkpt lat="47.0279467999548" lon="7.00501509997014"><ele></ele><time>2013-8-3T16:47:4Z</time></trkpt>
<trkpt lat="47.0278337999549" lon="7.0048515999702"><ele></ele><time>2013-8-3T16:47:7Z</time></trkpt>
<trkpt lat="47.027427599955" lon="7.00449309997039"><ele></ele><time>2013-8-3T16:47:10Z</time></trkpt>
<trkpt lat="47.0269307999556" lon="7.00393799997063"><ele></ele><time>2013-8-3T16:47:13Z</time></trkpt>
<trkpt lat="47.0265241999559" lon="7.00348089997083"><ele></ele><time>2013-8-3T16:47:16Z</time></trkpt>
<trkpt lat="47.026321099956" lon="7.00328529997092"><ele></ele><time>2013-8-3T16:47:19Z</time></trkpt>
<trkpt lat="47.0261632999561" lon="7.003187899971"><ele></ele><time>2013-8-3T16:47:22Z</time></trkpt>
<trkpt lat="47.0258929999563" lon="7.0030584999711"><ele></ele><time>2013-8-3T16:47:25Z</time></trkpt>
<trkpt lat="47.0256454999564" lon="7.00302769997119"><ele></ele><time>2013-8-3T16:47:28Z</time></trkpt>
<trkpt lat="47.0254875999565" lon="7.00289739997127"><ele></ele><time>2013-8-3T16:47:31Z</time></trkpt>
<trkpt lat="47.0249234999569" lon="7.00240869997153"><ele></ele><time>2013-8-3T16:47:34Z</time></trkpt>
<trkpt lat="47.0244272999573" lon="7.00201809997176"><ele></ele><time>2013-8-3T16:47:37Z</time></trkpt>
<trkpt lat="47.0242238999574" lon="7.00175669997186"><ele></ele><time>2013-8-3T16:47:40Z</time></trkpt>
<trkpt lat="47.0239518999577" lon="7.00119979997202"><ele></ele><time>2013-8-3T16:47:43Z</time></trkpt>
<trkpt lat="47.0238614999577" lon="7.00106899997206"><ele></ele><time>2013-8-3T16:47:46Z</time></trkpt>
<trkpt lat="47.0236585999579" lon="7.00093909997215"><ele></ele><time>2013-8-3T16:47:49Z</time></trkpt>
<trkpt lat="47.023433199958" lon="7.00080939997224"><ele></ele><time>2013-8-3T16:47:52Z</time></trkpt>
<trkpt lat="47.0232297999582" lon="7.00054799997235"><ele></ele><time>2013-8-3T16:47:55Z</time></trkpt>
<trkpt lat="47.0229135999584" lon="7.00018889997251"><ele></ele><time>2013-8-3T16:47:58Z</time></trkpt>
<trkpt lat="47.0228459999584" lon="7.00015649997253"><ele></ele><time>2013-8-3T16:48:1Z</time></trkpt>
<trkpt lat="47.0228235999584" lon="7.00018959997254"><ele></ele><time>2013-8-3T16:48:4Z</time></trkpt>
<trkpt lat="47.0228689999584" lon="7.00028789997251"><ele></ele><time>2013-8-3T16:48:7Z</time></trkpt>
<trkpt lat="47.0229823999582" lon="7.00054999997245"><ele></ele><time>2013-8-3T16:48:10Z</time></trkpt>
<trkpt lat="47.0229828999583" lon="7.00068159997243"><ele></ele><time>2013-8-3T16:48:13Z</time></trkpt>
<trkpt lat="47.0229158999583" lon="7.00078079997244"><ele></ele><time>2013-8-3T16:48:16Z</time></trkpt>
<trkpt lat="47.0228036999583" lon="7.00084749997248"><ele></ele><time>2013-8-3T16:48:19Z</time></trkpt>
<trkpt lat="47.0227360999584" lon="7.0008150999725"><ele></ele><time>2013-8-3T16:48:22Z</time></trkpt>
<trkpt lat="47.0226004999585" lon="7.00065179997257"><ele></ele><time>2013-8-3T16:48:25Z</time></trkpt>
<trkpt lat="47.0223968999588" lon="7.00032459997268"><ele></ele><time>2013-8-3T16:48:28Z</time></trkpt>
<trkpt lat="47.0223065999587" lon="7.00022669997272"><ele></ele><time>2013-8-3T16:48:31Z</time></trkpt>
<trkpt lat="47.0221940999588" lon="7.00022769997276"><ele></ele><time>2013-8-3T16:48:34Z</time></trkpt>
<trkpt lat="47.0218769999591" lon="6.99963829997294"><ele></ele><time>2013-8-3T16:48:37Z</time></trkpt>
<trkpt lat="47.0215149999594" lon="6.99904939997314"><ele></ele><time>2013-8-3T16:48:40Z</time></trkpt>
<trkpt lat="47.0209273999598" lon="6.99829789997344"><ele></ele><time>2013-8-3T16:48:43Z</time></trkpt>
<trkpt lat="47.0200460999605" lon="6.99718709997388"><ele></ele><time>2013-8-3T16:48:46Z</time></trkpt>
<trkpt lat="47.0197970999607" lon="6.99676169997402"><ele></ele><time>2013-8-3T16:48:49Z</time></trkpt>
<trkpt lat="47.019389399961" lon="6.99600869997425"><ele></ele><time>2013-8-3T16:48:52Z</time></trkpt>
<trkpt lat="47.0186188999617" lon="6.9945024999747"><ele></ele><time>2013-8-3T16:48:55Z</time></trkpt>
<trkpt lat="47.0182795999619" lon="6.99397919997489"><ele></ele><time>2013-8-3T16:48:58Z</time></trkpt>
<trkpt lat="47.018144199962" lon="6.99384879997495"><ele></ele><time>2013-8-3T16:49:1Z</time></trkpt>
<trkpt lat="47.0175357999624" lon="6.99355789997519"><ele></ele><time>2013-8-3T16:49:4Z</time></trkpt>
<trkpt lat="47.0175150999624" lon="6.99401839997515"><ele></ele><time>2013-8-3T16:49:7Z</time></trkpt>
<trkpt lat="47.0174257999624" lon="6.99418359997516"><ele></ele><time>2013-8-3T16:49:10Z</time></trkpt>
<trkpt lat="47.0172688999624" lon="6.9943163999752"><ele></ele><time>2013-8-3T16:49:13Z</time></trkpt>
<trkpt lat="47.0171345999625" lon="6.99448189997524"><ele></ele><time>2013-8-3T16:49:16Z</time></trkpt>
<trkpt lat="47.0170678999625" lon="6.99467979997524"><ele></ele><time>2013-8-3T16:49:19Z</time></trkpt>
<trkpt lat="47.0169588999624" lon="6.99556849997517"><ele></ele><time>2013-8-3T16:49:22Z</time></trkpt>
<trkpt lat="47.0168491999623" lon="6.99625989997514"><ele></ele><time>2013-8-3T16:49:25Z</time></trkpt>
<trkpt lat="47.017323699962" lon="6.99684779997489"><ele></ele><time>2013-8-3T16:49:28Z</time></trkpt>
<trkpt lat="47.0178439999616" lon="6.99763269997462"><ele></ele><time>2013-8-3T16:49:31Z</time></trkpt>
<trkpt lat="47.0183191999612" lon="6.99841799997436"><ele></ele><time>2013-8-3T16:49:34Z</time></trkpt>
<trkpt lat="47.018591199961" lon="6.9989746999742"><ele></ele><time>2013-8-3T16:49:37Z</time></trkpt>
<trkpt lat="47.0188625999607" lon="6.99936709997405"><ele></ele><time>2013-8-3T16:49:40Z</time></trkpt>
<trkpt lat="47.0198801999599" lon="7.00083849997352"><ele></ele><time>2013-8-3T16:49:43Z</time></trkpt>
<trkpt lat="47.0216436999586" lon="7.0033232999726"><ele></ele><time>2013-8-3T16:49:46Z</time></trkpt>
<trkpt lat="47.0213755999586" lon="7.00378579997265"><ele></ele><time>2013-8-3T16:49:49Z</time></trkpt>
<trkpt lat="47.0213539999586" lon="7.00401619997262"><ele></ele><time>2013-8-3T16:49:52Z</time></trkpt>
<trkpt lat="47.0214680999584" lon="7.00444279997254"><ele></ele><time>2013-8-3T16:49:55Z</time></trkpt>
<trkpt lat="47.0217868999581" lon="7.00549249997229"><ele></ele><time>2013-8-3T16:49:58Z</time></trkpt>
<trkpt lat="47.0222417999577" lon="7.00686989997198"><ele></ele><time>2013-8-3T16:50:1Z</time></trkpt>
<trkpt lat="47.0224466999574" lon="7.00752599997182"><ele></ele><time>2013-8-3T16:50:4Z</time></trkpt>
<trkpt lat="47.0225382999573" lon="7.00795279997174"><ele></ele><time>2013-8-3T16:50:7Z</time></trkpt>
<trkpt lat="47.0225161999573" lon="7.00805159997173"><ele></ele><time>2013-8-3T16:50:10Z</time></trkpt>
<trkpt lat="47.0217788999575" lon="7.00933999997186"><ele></ele><time>2013-8-3T16:50:13Z</time></trkpt>
<trkpt lat="47.0216891999575" lon="7.00940649997188"><ele></ele><time>2013-8-3T16:50:16Z</time></trkpt>
<trkpt lat="47.0215092999576" lon="7.00940789997194"><ele></ele><time>2013-8-3T16:50:19Z</time></trkpt>
<trkpt lat="47.0213746999577" lon="7.00950769997198"><ele></ele><time>2013-8-3T16:50:22Z</time></trkpt>
<trkpt lat="47.0211733999577" lon="7.00980519997203"><ele></ele><time>2013-8-3T16:50:25Z</time></trkpt>
<trkpt lat="47.0210167999578" lon="7.01000379997205"><ele></ele><time>2013-8-3T16:50:28Z</time></trkpt>
<trkpt lat="47.0206356999579" lon="7.01033569997215"><ele></ele><time>2013-8-3T16:50:31Z</time></trkpt>
<trkpt lat="47.0197840999583" lon="7.01113169997236"><ele></ele><time>2013-8-3T16:50:34Z</time></trkpt>
<trkpt lat="47.0173856999592" lon="7.01322239997299"><ele></ele><time>2013-8-3T16:50:37Z</time></trkpt>
<trkpt lat="47.0172525999593" lon="7.01371659997298"><ele></ele><time>2013-8-3T16:50:40Z</time></trkpt>
<trkpt lat="47.0165175999593" lon="7.01562959997302"><ele></ele><time>2013-8-3T16:50:43Z</time></trkpt>
<trkpt lat="47.0160500999593" lon="7.01691559997305"><ele></ele><time>2013-8-3T16:50:46Z</time></trkpt>
<trkpt lat="47.0157603999594" lon="7.01764129997306"><ele></ele><time>2013-8-3T16:50:49Z</time></trkpt>
<trkpt lat="47.0155369999594" lon="7.0180375999731"><ele></ele><time>2013-8-3T16:50:52Z</time></trkpt>
<trkpt lat="47.0153356999595" lon="7.01833509997313"><ele></ele><time>2013-8-3T16:50:55Z</time></trkpt>
<trkpt lat="47.0151340999596" lon="7.01856679997318"><ele></ele><time>2013-8-3T16:50:58Z</time></trkpt>
<trkpt lat="47.0149771999596" lon="7.01869959997322"><ele></ele><time>2013-8-3T16:51:1Z</time></trkpt>
<trkpt lat="47.0144389999599" lon="7.01909839997336"><ele></ele><time>2013-8-3T16:51:4Z</time></trkpt>
<trkpt lat="47.01399079996" lon="7.01952929997348"><ele></ele><time>2013-8-3T16:51:7Z</time></trkpt>
<trkpt lat="47.0133187999603" lon="7.02025789997364"><ele></ele><time>2013-8-3T16:51:10Z</time></trkpt>
<trkpt lat="47.0121317999607" lon="7.02158229997391"><ele></ele><time>2013-8-3T16:51:13Z</time></trkpt>
<trkpt lat="47.0119978999607" lon="7.02187919997391"><ele></ele><time>2013-8-3T16:51:16Z</time></trkpt>
<trkpt lat="47.0119095999607" lon="7.0223401999739"><ele></ele><time>2013-8-3T16:51:19Z</time></trkpt>
<trkpt lat="47.0118899999606" lon="7.02312949997381"><ele></ele><time>2013-8-3T16:51:22Z</time></trkpt>
<trkpt lat="47.0118923999604" lon="7.02378699997373"><ele></ele><time>2013-8-3T16:51:25Z</time></trkpt>
<trkpt lat="47.0118257999605" lon="7.02401769997373"><ele></ele><time>2013-8-3T16:51:28Z</time></trkpt>
<trkpt lat="47.0116246999605" lon="7.02438089997376"><ele></ele><time>2013-8-3T16:51:31Z</time></trkpt>
<trkpt lat="47.0114229999605" lon="7.02457969997381"><ele></ele><time>2013-8-3T16:51:34Z</time></trkpt>
<trkpt lat="47.0111984999606" lon="7.02468009997388"><ele></ele><time>2013-8-3T16:51:37Z</time></trkpt>
<trkpt lat="47.0109736999608" lon="7.02471469997395"><ele></ele><time>2013-8-3T16:51:40Z</time></trkpt>
<trkpt lat="47.0108161999609" lon="7.02468299997401"><ele></ele><time>2013-8-3T16:51:43Z</time></trkpt>
<trkpt lat="47.0106811999609" lon="7.02465119997407"><ele></ele><time>2013-8-3T16:51:46Z</time></trkpt>
<trkpt lat="47.0106554589901" lon="7.02459750696378"><ele></ele><time>2013-8-3T16:51:49Z</time></trkpt>
<trkpt lat="47.010518387304" lon="7.02453593672889"><ele></ele><time>2013-8-3T16:51:52Z</time></trkpt>
<trkpt lat="47.0103589760411" lon="7.02422053703344"><ele></ele><time>2013-8-3T16:51:55Z</time></trkpt>
<trkpt lat="47.0097587175115" lon="7.02309784502296"><ele></ele><time>2013-8-3T16:51:58Z</time></trkpt>
<trkpt lat="47.0096459321506" lon="7.02284298201934"><ele></ele><time>2013-8-3T16:52:1Z</time></trkpt>
<trkpt lat="47.0094947065412" lon="7.02281632173847"><ele></ele><time>2013-8-3T16:52:4Z</time></trkpt>
<trkpt lat="47.0091854887668" lon="7.0228656968325"><ele></ele><time>2013-8-3T16:52:7Z</time></trkpt>
<trkpt lat="47.0090298385344" lon="7.0229312752188"><ele></ele><time>2013-8-3T16:52:10Z</time></trkpt>
<trkpt lat="47.0089233368019" lon="7.02309563417149"><ele></ele><time>2013-8-3T16:52:13Z</time></trkpt>
<trkpt lat="47.0087193656421" lon="7.02329032372158"><ele></ele><time>2013-8-3T16:52:16Z</time></trkpt>
<trkpt lat="47.0078991389741" lon="7.02385686231484"><ele></ele><time>2013-8-3T16:52:19Z</time></trkpt>
<trkpt lat="47.007718410722" lon="7.02389827540944"><ele></ele><time>2013-8-3T16:52:22Z</time></trkpt>
<trkpt lat="47.0075372470927" lon="7.02381965561465"><ele></ele><time>2013-8-3T16:52:25Z</time></trkpt>
<trkpt lat="47.0074440707633" lon="7.02372121796403"><ele></ele><time>2013-8-3T16:52:28Z</time></trkpt>
<trkpt lat="47.0073446225449" lon="7.02353410737147"><ele></ele><time>2013-8-3T16:52:31Z</time></trkpt>
<trkpt lat="47.0072274383901" lon="7.02337844866844"><ele></ele><time>2013-8-3T16:52:34Z</time></trkpt>
<trkpt lat="47.007081739093" lon="7.02323518935192"><ele></ele><time>2013-8-3T16:52:37Z</time></trkpt>
<trkpt lat="47.0069220510893" lon="7.02317206265906"><ele></ele><time>2013-8-3T16:52:40Z</time></trkpt>
<trkpt lat="47.0061942326469" lon="7.02166251458574"><ele></ele><time>2013-8-3T16:52:43Z</time></trkpt>
<trkpt lat="47.0055961822064" lon="7.02049991037246"><ele></ele><time>2013-8-3T16:52:46Z</time></trkpt>
<trkpt lat="47.0054809919737" lon="7.02023987260968"><ele></ele><time>2013-8-3T16:52:49Z</time></trkpt>
<trkpt lat="47.005488385784" lon="7.01998409567072"><ele></ele><time>2013-8-3T16:52:52Z</time></trkpt>
<trkpt lat="47.0055330226336" lon="7.01950014113302"><ele></ele><time>2013-8-3T16:52:55Z</time></trkpt>
<trkpt lat="47.0054965584348" lon="7.01929167625408"><ele></ele><time>2013-8-3T16:52:58Z</time></trkpt>
<trkpt lat="47.0054454976115" lon="7.01867278424306"><ele></ele><time>2013-8-3T16:53:1Z</time></trkpt>
<trkpt lat="47.0054327737222" lon="7.01844847771999"><ele></ele><time>2013-8-3T16:53:4Z</time></trkpt>
<trkpt lat="47.0055726134325" lon="7.0182908168078"><ele></ele><time>2013-8-3T16:53:7Z</time></trkpt>
<trkpt lat="47.0062387818624" lon="7.01725921375344"><ele></ele><time>2013-8-3T16:53:10Z</time></trkpt>
<trkpt lat="47.0062232455501" lon="7.01691837250263"><ele></ele><time>2013-8-3T16:53:13Z</time></trkpt>
<trkpt lat="47.0062408536356" lon="7.01653030053268"><ele></ele><time>2013-8-3T16:53:16Z</time></trkpt>
<trkpt lat="47.0063069920804" lon="7.01575043236017"><ele></ele><time>2013-8-3T16:53:19Z</time></trkpt>
<trkpt lat="47.0063925138446" lon="7.01538617679359"><ele></ele><time>2013-8-3T16:53:22Z</time></trkpt>
<trkpt lat="47.0063511343975" lon="7.01513773921087"><ele></ele><time>2013-8-3T16:53:25Z</time></trkpt>
<trkpt lat="47.0061322802672" lon="7.01452365019776"><ele></ele><time>2013-8-3T16:53:28Z</time></trkpt>
<trkpt lat="47.0061566305232" lon="7.01435123598613"><ele></ele><time>2013-8-3T16:53:31Z</time></trkpt>
<trkpt lat="47.0062022383063" lon="7.01413516276781"><ele></ele><time>2013-8-3T16:53:34Z</time></trkpt>
<trkpt lat="47.0071041174545" lon="7.01313815439574"><ele></ele><time>2013-8-3T16:53:37Z</time></trkpt>
<trkpt lat="47.0074964392498" lon="7.01271751877054"><ele></ele><time>2013-8-3T16:53:40Z</time></trkpt>
<trkpt lat="47.0076840766183" lon="7.01261512524634"><ele></ele><time>2013-8-3T16:53:43Z</time></trkpt>
<trkpt lat="47.0080331201739" lon="7.01239662765147"><ele></ele><time>2013-8-3T16:53:46Z</time></trkpt>
<trkpt lat="47.0087754110406" lon="7.01168787894477"><ele></ele><time>2013-8-3T16:53:49Z</time></trkpt>
<trkpt lat="47.0088317493723" lon="7.01147866598668"><ele></ele><time>2013-8-3T16:53:52Z</time></trkpt>
<trkpt lat="47.0089911807241" lon="7.01019871356136"><ele></ele><time>2013-8-3T16:53:55Z</time></trkpt>
</trkseg></trk></gpx>